Time;durP1;ratioP1;P1;durP2;ratioP2;P2;SDS_P1;SDS_P2;PMS_P1;PMS_P2;Temp;Humidity;BMP_temperature;BMP_pressure;BME280_temperature;BME280_humidity;BME280_pressure;Samples;Min_cycle;Max_cycle;Signal;HPM_P1;HPM_P2
2024/04/09 00:01:55;;;;;;;17.05;4.40;;;23.50;98.00;;;;;;10864165;26;20271;-65
2024/04/09 00:06:45;;;;;;;14.57;4.72;;;23.40;98.10;;;;;;10881034;26;20018;-63
2024/04/09 00:11:36;;;;;;;13.23;2.60;;;23.30;98.20;;;;;;10889991;26;19986;-63
2024/04/09 00:16:26;;;;;;;10.02;3.58;;;23.30;98.20;;;;;;10870880;26;19990;-64
2024/04/09 00:21:17;;;;;;;11.80;4.25;;;23.30;98.30;;;;;;10864305;26;19998;-65
2024/04/09 00:26:09;;;;;;;11.57;3.30;;;23.30;98.30;;;;;;10835552;26;19995;-64
2024/04/09 00:31:01;;;;;;;13.70;3.97;;;23.30;98.20;;;;;;10852417;26;20054;-71
2024/04/09 00:35:55;;;;;;;14.02;3.80;;;23.30;98.20;;;;;;10894010;26;19990;-66
2024/04/09 00:40:47;;;;;;;7.63;2.80;;;23.30;98.10;;;;;;10870773;26;19994;-64
2024/04/09 00:45:37;;;;;;;9.88;4.22;;;23.30;98.10;;;;;;10853361;26;20018;-71
2024/04/09 00:50:29;;;;;;;14.07;4.03;;;23.30;98.10;;;;;;10843614;26;20121;-69
2024/04/09 00:55:25;;;;;;;15.23;3.30;;;23.30;98.10;;;;;;10833663;26;20083;-64
2024/04/09 01:00:15;;;;;;;10.88;4.43;;;23.30;98.00;;;;;;10848669;26;20034;-67
2024/04/09 01:05:06;;;;;;;17.55;4.25;;;23.30;98.00;;;;;;10822542;26;20557;-68
2024/04/09 01:09:56;;;;;;;10.50;3.65;;;23.20;98.00;;;;;;10929177;21;20021;-73
2024/04/09 01:14:53;;;;;;;12.07;2.80;;;23.10;98.10;;;;;;10918365;26;20122;-78
2024/04/09 01:19:44;;;;;;;12.32;3.30;;;23.10;98.10;;;;;;11219322;21;20437;-76
2024/04/09 01:24:35;;;;;;;4.93;2.60;;;23.00;98.10;;;;;;10784345;26;20014;-74
2024/04/09 01:29:32;;;;;;;6.32;2.92;;;22.90;98.20;;;;;;10825930;26;19995;-73
2024/04/09 01:34:23;;;;;;;12.05;3.53;;;22.90;98.30;;;;;;10810943;26;20010;-75
2024/04/09 01:39:14;;;;;;;8.07;3.55;;;22.90;98.30;;;;;;10764877;26;20000;-75
2024/04/09 01:49:52;;;;;;;9.05;3.88;;;22.80;98.40;;;;;;10687268;20;20015;-76
2024/04/09 01:54:44;;;;;;;9.20;2.92;;;22.60;98.60;;;;;;10679760;26;20011;-77
2024/04/09 02:04:27;;;;;;;8.60;3.17;;;22.60;98.60;;;;;;11870700;21;20462;-78
2024/04/09 02:09:20;;;;;;;8.10;2.83;;;22.50;98.60;;;;;;10752453;26;20036;-75
2024/04/09 02:14:11;;;;;;;14.10;3.25;;;22.50;98.60;;;;;;11171849;20;20078;-76
2024/04/09 02:19:53;;;;;;;;;;;;;;;;;;;;;
2024/04/09 02:24:47;;;;;;;10.77;3.00;;;22.60;98.50;;;;;;10749187;26;20047;-76
2024/04/09 02:29:38;;;;;;;12.52;2.78;;;22.60;98.50;;;;;;10749265;26;20019;-75
2024/04/09 02:34:29;;;;;;;5.72;2.38;;;22.60;98.50;;;;;;10749507;26;20346;-73
2024/04/09 02:39:19;;;;;;;11.23;3.22;;;22.60;98.40;;;;;;10749417;26;20015;-72
2024/04/09 02:44:10;;;;;;;6.45;3.35;;;22.50;98.40;;;;;;10748527;26;20000;-77
2024/04/09 02:49:01;;;;;;;12.23;3.95;;;22.50;98.50;;;;;;10742584;26;20015;-78
2024/04/09 02:53:53;;;;;;;6.90;2.00;;;22.40;98.50;;;;;;10754281;26;20538;-77
2024/04/09 03:03:50;;;;;;;6.70;1.88;;;22.50;98.00;;;;;;11672473;21;20006;-74
2024/04/09 03:08:44;;;;;;;6.95;1.95;;;22.40;97.80;;;;;;10791252;26;20019;-81
2024/04/09 03:13:35;;;;;;;4.53;1.63;;;22.40;97.60;;;;;;10832227;26;20035;-77
2024/04/09 03:18:25;;;;;;;3.70;1.48;;;22.20;97.50;;;;;;10826048;26;20000;-78
2024/04/09 03:23:16;;;;;;;5.18;1.60;;;22.10;97.40;;;;;;11032222;20;20008;-76
2024/04/09 03:28:07;;;;;;;1.63;1.00;;;21.90;97.30;;;;;;10750476;26;19993;-74
2024/04/09 03:33:24;;;;;;;3.40;1.23;;;21.70;97.30;;;;;;10748626;26;20004;-80
2024/04/09 03:38:14;;;;;;;2.53;0.75;;;21.70;97.20;;;;;;10743068;26;19997;-75
2024/04/09 03:48:46;;;;;;;2.75;0.93;;;21.70;97.20;;;;;;11265506;21;20130;-79
2024/04/09 03:53:37;;;;;;;2.25;1.02;;;21.70;97.10;;;;;;11308277;21;20016;-77
2024/04/09 03:58:29;;;;;;;4.50;1.13;;;21.60;97.20;;;;;;10967454;21;20018;-75
2024/04/09 04:03:20;;;;;;;2.70;0.77;;;21.50;97.20;;;;;;10496167;27;20009;-74
2024/04/09 04:08:11;;;;;;;2.40;1.50;;;21.40;97.20;;;;;;10554152;27;19999;-74
2024/04/09 04:13:02;;;;;;;5.25;0.88;;;21.40;97.30;;;;;;10563267;27;19998;-74
2024/04/09 04:17:54;;;;;;;3.53;1.20;;;21.30;97.40;;;;;;10554932;27;20018;-75
2024/04/09 04:22:44;;;;;;;2.50;0.95;;;21.20;97.60;;;;;;10558304;27;20002;-72
2024/04/09 04:27:35;;;;;;;4.47;1.05;;;21.20;97.50;;;;;;10543024;27;20003;-75
2024/04/09 04:32:42;;;;;;;4.05;1.17;;;21.20;97.50;;;;;;10549686;27;20333;-76
2024/04/09 04:37:33;;;;;;;3.63;1.08;;;21.30;97.60;;;;;;10532781;27;20068;-75
2024/04/09 04:42:36;;;;;;;3.15;1.10;;;21.20;97.70;;;;;;10550341;27;20452;-76
2024/04/09 04:47:27;;;;;;;5.13;1.23;;;21.10;97.80;;;;;;10526471;27;20022;-78
2024/04/09 04:52:17;;;;;;;3.05;0.90;;;21.00;97.90;;;;;;10530067;27;20025;-76
2024/04/09 04:57:08;;;;;;;3.40;0.80;;;20.90;98.10;;;;;;10550615;27;20002;-77
2024/04/09 05:01:59;;;;;;;5.07;0.90;;;20.80;98.20;;;;;;10565079;26;20044;-73
2024/04/09 05:06:50;;;;;;;4.30;1.85;;;20.70;98.50;;;;;;10557600;27;19997;-73
2024/04/09 05:11:44;;;;;;;1.83;1.27;;;20.70;98.60;;;;;;10911069;21;20383;-77
2024/04/09 05:16:34;;;;;;;3.03;0.90;;;20.50;98.80;;;;;;10584313;27;20547;-74
2024/04/09 05:21:30;;;;;;;2.40;0.60;;;20.40;99.00;;;;;;10612627;27;19998;-74
2024/04/09 05:26:21;;;;;;;2.47;0.80;;;20.30;99.20;;;;;;10584781;21;20013;-78
2024/04/09 05:31:12;;;;;;;0.82;0.60;;;20.10;99.30;;;;;;10529543;27;19998;-74
2024/04/09 05:36:43;;;;;;;1.95;0.60;;;19.90;99.50;;;;;;10547795;22;20071;-76
2024/04/09 05:41:34;;;;;;;1.10;0.63;;;20.00;99.50;;;;;;10597119;26;20009;-73
2024/04/09 05:46:25;;;;;;;3.35;0.90;;;19.90;99.40;;;;;;10608198;26;20053;-74
2024/04/09 05:51:16;;;;;;;0.38;0.20;;;19.70;99.50;;;;;;10609496;26;20346;-75
2024/04/09 05:56:07;;;;;;;0.65;0.30;;;19.30;99.90;;;;;;10585044;26;20014;-74
2024/04/09 06:00:58;;;;;;;0.30;0.20;;;19.00;99.90;;;;;;10614132;26;20083;-74
2024/04/09 06:05:51;;;;;;;2.58;0.20;;;18.70;99.90;;;;;;10613429;26;20510;-76
2024/04/09 06:10:41;;;;;;;0.20;0.20;;;18.70;99.90;;;;;;10612415;26;20009;-77
2024/04/09 06:15:32;;;;;;;3.78;0.25;;;18.60;99.90;;;;;;10602913;26;20040;-75
2024/04/09 06:20:22;;;;;;;1.17;0.00;;;18.70;99.80;;;;;;10620997;26;20023;-72
2024/04/09 06:25:19;;;;;;;1.48;0.10;;;18.50;99.60;;;;;;10601010;26;20013;-74
2024/04/09 06:30:11;;;;;;;1.25;0.35;;;18.30;99.40;;;;;;10607166;26;20001;-73
2024/04/09 06:35:02;;;;;;;4.85;0.73;;;18.10;99.40;;;;;;10608990;26;20453;-71
2024/04/09 06:39:53;;;;;;;1.42;0.45;;;18.20;99.30;;;;;;10611776;26;20731;-73
2024/04/09 06:44:43;;;;;;;0.00;0.00;;;18.10;99.00;;;;;;10615717;26;20062;-71
2024/04/09 06:49:38;;;;;;;2.50;0.70;;;18.10;98.90;;;;;;10611325;26;20012;-72
2024/04/09 06:54:28;;;;;;;0.37;0.20;;;18.00;98.70;;;;;;10607738;26;20005;-73
2024/04/09 06:59:19;;;;;;;2.97;0.40;;;17.90;98.60;;;;;;10609758;26;20002;-72
2024/04/09 07:04:10;;;;;;;1.05;0.40;;;17.80;98.40;;;;;;10609526;26;20080;-74
2024/04/09 07:09:03;;;;;;;0.55;0.45;;;17.60;98.10;;;;;;10611203;26;20463;-71
2024/04/09 07:13:54;;;;;;;3.30;0.30;;;17.40;98.00;;;;;;10600506;26;20102;-73
2024/04/09 07:18:44;;;;;;;0.88;0.30;;;17.20;97.90;;;;;;10598911;26;20005;-74
2024/04/09 07:23:35;;;;;;;1.63;0.30;;;17.00;97.70;;;;;;10612136;26;20420;-73
2024/04/09 07:28:26;;;;;;;2.08;0.20;;;17.20;97.60;;;;;;10569719;26;20005;-74
2024/04/09 07:33:17;;;;;;;1.02;0.38;;;17.40;97.50;;;;;;10612387;26;19998;-76
2024/04/09 07:38:07;;;;;;;0.73;0.30;;;17.50;97.30;;;;;;10600479;26;20009;-77
2024/04/09 07:42:59;;;;;;;0.32;0.30;;;17.60;97.20;;;;;;10605149;26;19997;-76
2024/04/09 07:47:51;;;;;;;0.70;0.70;;;17.50;97.10;;;;;;10611262;27;19998;-76
2024/04/09 07:52:42;;;;;;;0.50;0.40;;;17.30;97.20;;;;;;10595732;26;20425;-75
2024/04/09 07:57:32;;;;;;;0.55;0.40;;;17.30;97.10;;;;;;10607157;26;20038;-74
2024/04/09 08:02:23;;;;;;;1.67;0.80;;;17.20;97.10;;;;;;10581928;27;20805;-76
2024/04/09 08:07:14;;;;;;;1.23;0.30;;;17.30;97.00;;;;;;10608531;26;20002;-76
2024/04/09 08:12:04;;;;;;;1.45;0.40;;;17.20;97.00;;;;;;10610458;26;20018;-74
2024/04/09 08:16:55;;;;;;;0.20;0.20;;;16.90;97.10;;;;;;10603986;26;20153;-75
2024/04/09 08:21:46;;;;;;;0.73;0.43;;;16.90;97.20;;;;;;10571784;26;20006;-75
2024/04/09 08:26:36;;;;;;;1.67;0.38;;;16.80;97.20;;;;;;10607066;26;20018;-75
2024/04/09 08:31:28;;;;;;;0.40;0.28;;;16.60;97.30;;;;;;10597733;26;20056;-75
2024/04/09 08:36:19;;;;;;;0.85;0.57;;;16.50;97.40;;;;;;10604591;26;20041;-76
2024/04/09 08:41:10;;;;;;;0.30;0.20;;;16.50;97.50;;;;;;10609657;26;20041;-75
2024/04/09 08:46:02;;;;;;;1.67;0.40;;;16.30;97.60;;;;;;10605205;26;20002;-74
2024/04/09 08:50:54;;;;;;;0.55;0.38;;;16.20;97.70;;;;;;10607111;26;20083;-75
2024/04/09 08:55:44;;;;;;;0.45;0.22;;;16.20;97.60;;;;;;10609606;26;20012;-76
2024/04/09 09:00:36;;;;;;;1.23;0.38;;;15.90;97.60;;;;;;10586796;26;20040;-75
2024/04/09 09:05:27;;;;;;;0.30;0.10;;;15.80;97.80;;;;;;10606645;26;20010;-71
2024/04/09 09:10:20;;;;;;;0.17;0.17;;;15.70;97.80;;;;;;10599207;26;20013;-75
2024/04/09 09:15:38;;;;;;;0.50;0.50;;;15.80;98.10;;;;;;10613928;26;20008;-74
2024/04/09 09:20:37;;;;;;;2.15;0.38;;;15.70;97.90;;;;;;10583438;26;20075;-73
2024/04/09 09:25:32;;;;;;;0.40;0.38;;;15.60;97.80;;;;;;10601000;26;20436;-72
2024/04/09 09:30:25;;;;;;;0.50;0.30;;;15.60;97.90;;;;;;10614373;26;20001;-77
2024/04/09 09:35:17;;;;;;;2.70;0.20;;;15.60;98.00;;;;;;10582929;26;20001;-79
2024/04/09 09:40:10;;;;;;;1.95;0.40;;;15.60;98.00;;;;;;10591529;26;20012;-78
2024/04/09 09:45:06;;;;;;;1.23;0.50;;;15.50;98.00;;;;;;10613206;26;20009;-79
2024/04/09 09:49:58;;;;;;;1.08;0.40;;;15.50;98.00;;;;;;10599707;26;20006;-77
2024/04/09 09:54:49;;;;;;;1.33;0.47;;;15.50;97.90;;;;;;10582814;26;20016;-78
2024/04/09 09:59:48;;;;;;;0.85;0.40;;;15.40;97.80;;;;;;10605548;26;19998;-78
2024/04/09 10:04:40;;;;;;;0.45;0.30;;;15.40;97.80;;;;;;10603905;26;20336;-81
2024/04/09 10:09:53;;;;;;;0.88;0.43;;;15.40;97.80;;;;;;10608621;26;20335;-83
2024/04/09 10:14:44;;;;;;;0.73;0.50;;;15.50;97.80;;;;;;10604708;26;19997;-81
2024/04/09 10:19:35;;;;;;;1.88;0.93;;;15.40;97.70;;;;;;10622967;26;20005;-79
2024/04/09 10:24:27;;;;;;;0.93;0.40;;;15.50;97.80;;;;;;10612520;26;20553;-78
2024/04/09 10:29:20;;;;;;;0.57;0.50;;;15.60;97.80;;;;;;10613542;26;20587;-79
2024/04/09 10:34:21;;;;;;;2.60;0.70;;;15.60;97.80;;;;;;10616354;26;20001;-77
2024/04/09 10:39:14;;;;;;;1.08;0.70;;;15.60;97.90;;;;;;10587575;26;20492;-76
2024/04/09 10:44:08;;;;;;;2.75;0.90;;;15.50;97.90;;;;;;10609611;26;20008;-79
2024/04/09 10:48:59;;;;;;;1.80;1.02;;;15.50;98.00;;;;;;10588371;26;20025;-73
2024/04/09 10:53:50;;;;;;;2.55;0.80;;;15.50;98.00;;;;;;10613798;26;20001;-81
2024/04/09 10:58:40;;;;;;;1.20;0.55;;;15.60;98.10;;;;;;10613180;26;20072;-75
2024/04/09 11:03:33;;;;;;;1.20;0.60;;;15.60;98.00;;;;;;10611889;26;20439;-76
2024/04/09 11:08:30;;;;;;;1.60;1.00;;;15.60;98.10;;;;;;10601563;26;19994;-76
2024/04/09 11:13:22;;;;;;;2.55;0.40;;;15.70;98.10;;;;;;10610101;26;20443;-72
2024/04/09 11:18:20;;;;;;;0.80;0.45;;;15.60;98.10;;;;;;10612705;26;20001;-76
2024/04/09 11:23:11;;;;;;;0.63;0.50;;;15.50;98.10;;;;;;10613175;26;20020;-70
2024/04/09 11:28:04;;;;;;;0.47;0.32;;;15.70;98.10;;;;;;10611368;26;20012;-71
2024/04/09 11:32:55;;;;;;;1.75;0.50;;;15.70;98.00;;;;;;10603467;26;20041;-71
2024/04/09 11:37:57;;;;;;;0.85;0.50;;;15.60;98.10;;;;;;10610562;27;20021;-74
2024/04/09 11:42:52;;;;;;;1.23;0.57;;;15.50;98.10;;;;;;10595011;27;20001;-75
2024/04/09 11:47:43;;;;;;;1.38;0.35;;;15.40;98.00;;;;;;10581112;27;20012;-73
2024/04/09 11:52:34;;;;;;;0.20;0.20;;;15.50;98.00;;;;;;10610846;26;20566;-73
2024/04/09 11:57:25;;;;;;;0.80;0.40;;;15.60;97.80;;;;;;10609595;26;20076;-73
2024/04/09 12:02:15;;;;;;;1.00;0.63;;;15.70;97.70;;;;;;10608564;26;20448;-72
2024/04/09 12:07:09;;;;;;;3.25;0.45;;;15.70;97.60;;;;;;10610019;26;19998;-74
2024/04/09 12:12:00;;;;;;;0.38;0.38;;;15.70;97.60;;;;;;10610221;26;20013;-72
2024/04/09 12:16:50;;;;;;;0.82;0.40;;;15.80;97.60;;;;;;10599215;26;19994;-72
2024/04/09 12:21:41;;;;;;;0.90;0.30;;;15.80;97.50;;;;;;10600887;26;20017;-74
2024/04/09 12:26:32;;;;;;;0.85;0.30;;;15.80;97.50;;;;;;10572945;27;19994;-74
2024/04/09 12:31:23;;;;;;;2.28;0.40;;;15.80;97.40;;;;;;10604557;26;19998;-71
2024/04/09 12:36:13;;;;;;;1.02;0.55;;;15.60;97.40;;;;;;10594258;26;20381;-70
2024/04/09 12:41:07;;;;;;;0.22;0.22;;;15.50;97.40;;;;;;10605932;26;20038;-74
2024/04/09 12:45:58;;;;;;;0.88;0.20;;;15.60;97.40;;;;;;10592323;26;20017;-73
2024/04/09 12:50:58;;;;;;;0.57;0.22;;;15.50;97.30;;;;;;10586431;26;20013;-73
2024/04/09 12:55:49;;;;;;;0.75;0.30;;;15.40;97.40;;;;;;10598933;26;20005;-73
2024/04/09 13:00:39;;;;;;;0.35;0.20;;;15.60;97.40;;;;;;10610875;26;20167;-73
2024/04/09 13:05:30;;;;;;;0.95;0.32;;;15.60;97.30;;;;;;10606523;26;20002;-73
2024/04/09 13:10:21;;;;;;;0.40;0.30;;;15.60;97.40;;;;;;10606178;26;20001;-76
2024/04/09 13:15:12;;;;;;;0.82;0.20;;;15.60;97.40;;;;;;10607515;26;19998;-72
2024/04/09 13:20:04;;;;;;;0.43;0.35;;;15.50;97.50;;;;;;10607537;26;20001;-74
2024/04/09 13:24:55;;;;;;;0.65;0.40;;;15.50;97.60;;;;;;10608020;26;19997;-73
2024/04/09 13:29:46;;;;;;;1.02;0.50;;;15.50;97.70;;;;;;10607055;26;20016;-73
2024/04/09 13:34:37;;;;;;;0.63;0.40;;;15.40;97.70;;;;;;10603087;26;20008;-75
2024/04/09 13:39:28;;;;;;;0.57;0.30;;;15.40;97.90;;;;;;10597803;26;20016;-71
2024/04/09 13:44:19;;;;;;;1.23;0.50;;;15.30;98.00;;;;;;10613346;26;20053;-73
2024/04/09 13:49:09;;;;;;;1.50;0.32;;;15.30;98.00;;;;;;10613122;26;20453;-72
2024/04/09 13:54:00;;;;;;;2.67;0.55;;;15.40;98.10;;;;;;10599837;26;19997;-72
2024/04/09 13:58:51;;;;;;;0.68;0.40;;;15.40;98.20;;;;;;10612235;26;20083;-73
2024/04/09 14:03:42;;;;;;;1.15;0.40;;;15.40;98.20;;;;;;10608811;26;20469;-72
2024/04/09 14:08:33;;;;;;;1.95;0.57;;;15.40;98.30;;;;;;10613723;26;20308;-72
2024/04/09 14:13:28;;;;;;;2.35;0.65;;;15.40;98.40;;;;;;10612188;26;20037;-74
2024/04/09 14:18:19;;;;;;;1.58;0.40;;;15.30;98.50;;;;;;10612567;26;20021;-75
2024/04/09 14:23:09;;;;;;;1.55;0.50;;;15.40;98.50;;;;;;10612274;26;19998;-73
2024/04/09 14:28:00;;;;;;;0.93;0.70;;;15.50;98.60;;;;;;10607172;26;20341;-73
2024/04/09 14:32:53;;;;;;;0.90;0.60;;;15.50;98.60;;;;;;10613475;26;20625;-75
2024/04/09 14:37:44;;;;;;;0.70;0.47;;;15.40;98.60;;;;;;10584412;26;20048;-73
2024/04/09 14:42:36;;;;;;;1.52;0.65;;;15.30;98.60;;;;;;10613626;26;20370;-75
2024/04/09 14:47:26;;;;;;;1.25;0.70;;;15.20;98.70;;;;;;10593019;26;20005;-77
2024/04/09 14:52:17;;;;;;;0.60;0.40;;;15.20;98.80;;;;;;10602121;27;19997;-76
2024/04/09 14:57:07;;;;;;;4.03;1.13;;;15.20;98.70;;;;;;10611549;26;20079;-72
2024/04/09 15:01:58;;;;;;;1.15;0.50;;;15.20;98.70;;;;;;10607047;26;20415;-73
2024/04/09 15:06:50;;;;;;;0.65;0.38;;;15.20;98.70;;;;;;10611022;26;20016;-74
2024/04/09 15:11:41;;;;;;;0.47;0.43;;;15.20;98.70;;;;;;10593533;27;20033;-76
2024/04/09 15:16:31;;;;;;;0.32;0.30;;;15.20;98.80;;;;;;10605792;26;20553;-78
2024/04/09 15:21:25;;;;;;;3.10;0.60;;;15.00;98.70;;;;;;10588983;27;20021;-77
2024/04/09 15:26:16;;;;;;;1.73;0.70;;;15.00;98.90;;;;;;10587235;27;19997;-76
2024/04/09 15:31:10;;;;;;;1.10;0.82;;;15.10;98.90;;;;;;10609466;26;20014;-78
2024/04/09 15:36:02;;;;;;;2.13;0.63;;;15.00;98.90;;;;;;10610332;26;20001;-75
2024/04/09 15:40:53;;;;;;;1.08;0.52;;;15.00;98.90;;;;;;10609746;26;19998;-77
2024/04/09 15:45:45;;;;;;;0.98;0.40;;;15.00;99.00;;;;;;10611931;26;20030;-75
2024/04/09 15:50:35;;;;;;;1.48;0.65;;;15.00;99.00;;;;;;10608387;26;20013;-73
2024/04/09 15:55:26;;;;;;;2.55;0.55;;;15.00;99.00;;;;;;10608464;26;20388;-71
2024/04/09 16:00:17;;;;;;;1.15;0.55;;;15.00;99.00;;;;;;10600326;26;20657;-71
2024/04/09 16:05:09;;;;;;;1.55;0.82;;;15.00;99.20;;;;;;10585666;26;20005;-75
2024/04/09 16:10:17;;;;;;;0.73;0.50;;;14.90;99.30;;;;;;10611465;27;20028;-79
2024/04/09 16:15:11;;;;;;;1.30;0.40;;;14.90;99.30;;;;;;10604557;26;20406;-72
2024/04/09 16:20:03;;;;;;;1.13;0.50;;;14.90;99.40;;;;;;10608882;26;19998;-71
2024/04/09 16:24:54;;;;;;;0.45;0.35;;;14.90;99.40;;;;;;10604606;26;20444;-70
2024/04/09 16:29:45;;;;;;;1.15;0.60;;;14.90;99.40;;;;;;10601837;26;20005;-73
2024/04/09 16:34:36;;;;;;;1.52;0.68;;;15.00;99.40;;;;;;10609070;26;20500;-72
2024/04/09 16:39:26;;;;;;;0.80;0.60;;;15.00;99.40;;;;;;10584961;26;20028;-74
2024/04/09 16:44:17;;;;;;;3.38;0.73;;;15.00;99.40;;;;;;10576473;26;20045;-73
2024/04/09 16:49:08;;;;;;;0.85;0.50;;;15.00;99.50;;;;;;10593450;26;20049;-71
2024/04/09 16:53:58;;;;;;;2.53;0.60;;;14.90;99.50;;;;;;10588291;26;20508;-72
2024/04/09 16:58:49;;;;;;;1.70;0.88;;;14.90;99.60;;;;;;10540971;26;20573;-68
2024/04/09 17:03:40;;;;;;;1.05;0.77;;;14.90;99.60;;;;;;10601843;26;20025;-71
2024/04/09 17:08:31;;;;;;;1.63;0.57;;;14.90;99.70;;;;;;10596329;26;20008;-70
2024/04/09 17:13:22;;;;;;;1.17;0.68;;;14.90;99.60;;;;;;10606811;26;20328;-68
2024/04/09 17:18:13;;;;;;;2.72;0.80;;;14.80;99.80;;;;;;10606347;26;20014;-68
2024/04/09 17:23:03;;;;;;;2.60;1.00;;;14.80;99.70;;;;;;10606396;26;19997;-68
2024/04/09 17:27:54;;;;;;;1.45;1.35;;;14.80;99.70;;;;;;10580746;26;20709;-67
2024/04/09 17:32:51;;;;;;;2.00;0.65;;;14.80;99.70;;;;;;10576667;26;20012;-69
2024/04/09 17:37:41;;;;;;;3.38;1.13;;;14.70;99.80;;;;;;10596518;26;20075;-69
2024/04/09 17:42:32;;;;;;;2.03;0.63;;;14.70;99.80;;;;;;10612524;26;20111;-70
2024/04/09 17:47:26;;;;;;;2.15;0.63;;;14.70;99.80;;;;;;10609002;26;20005;-71
2024/04/09 17:52:17;;;;;;;1.35;0.98;;;14.70;99.90;;;;;;10587622;26;20467;-70
2024/04/09 17:57:08;;;;;;;4.22;0.90;;;14.60;99.90;;;;;;10587063;26;20009;-70
2024/04/09 18:02:00;;;;;;;2.35;1.30;;;14.50;99.90;;;;;;10612294;26;20677;-71
2024/04/09 18:06:51;;;;;;;1.67;1.02;;;14.50;99.90;;;;;;10589783;27;20001;-71
2024/04/09 18:11:46;;;;;;;1.65;1.00;;;14.50;99.90;;;;;;10611531;26;20001;-70
2024/04/09 18:16:38;;;;;;;2.40;0.80;;;14.50;99.90;;;;;;10611332;26;20079;-70
2024/04/09 18:21:31;;;;;;;1.63;0.80;;;14.50;99.90;;;;;;10612162;26;20013;-70
2024/04/09 18:26:22;;;;;;;2.88;1.10;;;14.50;99.90;;;;;;10618027;26;20448;-70
2024/04/09 18:31:13;;;;;;;2.50;0.80;;;14.50;99.90;;;;;;10587257;27;20443;-71
2024/04/09 18:36:05;;;;;;;1.35;0.60;;;14.50;99.90;;;;;;10607580;26;20002;-70
2024/04/09 18:41:03;;;;;;;1.27;0.90;;;14.50;99.90;;;;;;10579231;26;20002;-69
2024/04/09 18:45:53;;;;;;;1.35;0.60;;;14.30;99.90;;;;;;10609014;26;20017;-69
2024/04/09 18:50:44;;;;;;;2.15;0.88;;;14.30;99.90;;;;;;10602929;26;20002;-69
2024/04/09 18:55:36;;;;;;;1.52;0.63;;;14.20;99.90;;;;;;10607572;26;20383;-69
2024/04/09 19:00:27;;;;;;;1.77;0.65;;;14.10;99.90;;;;;;10619242;26;20005;-70
2024/04/09 19:05:22;;;;;;;3.53;1.27;;;14.20;99.90;;;;;;10607080;26;20030;-70
2024/04/09 19:10:12;;;;;;;1.98;1.20;;;14.20;99.90;;;;;;10610664;26;20587;-70
2024/04/09 19:15:03;;;;;;;2.03;1.08;;;14.10;99.90;;;;;;10606507;26;20006;-70
2024/04/09 19:19:54;;;;;;;2.10;1.08;;;14.10;99.90;;;;;;10610029;26;20016;-70
2024/04/09 19:24:44;;;;;;;4.63;2.20;;;14.10;99.90;;;;;;10609741;26;20006;-70
2024/04/09 19:29:35;;;;;;;1.58;0.80;;;14.10;99.90;;;;;;10599141;26;20002;-68
2024/04/09 19:34:26;;;;;;;1.75;1.13;;;14.00;99.90;;;;;;10608439;26;20018;-69
2024/04/09 19:39:19;;;;;;;3.28;1.58;;;14.00;99.90;;;;;;10595914;26;20547;-71
2024/04/09 19:44:10;;;;;;;4.97;1.38;;;14.00;99.90;;;;;;10603012;26;20016;-70
2024/04/09 19:49:01;;;;;;;2.20;1.05;;;13.90;99.90;;;;;;10601148;26;20002;-70
2024/04/09 19:53:51;;;;;;;3.15;1.13;;;13.90;99.90;;;;;;10618700;26;20002;-68
2024/04/09 19:58:42;;;;;;;3.70;0.95;;;13.90;99.90;;;;;;10602129;26;20016;-68
2024/04/09 20:03:33;;;;;;;4.35;1.52;;;13.90;99.90;;;;;;10608686;26;20343;-69
2024/04/09 20:08:24;;;;;;;1.88;1.25;;;14.00;99.90;;;;;;10608707;26;20024;-69
2024/04/09 20:13:14;;;;;;;2.60;0.90;;;14.00;99.90;;;;;;10580014;26;20009;-68
2024/04/09 20:18:05;;;;;;;2.72;1.02;;;14.00;99.90;;;;;;10608416;26;20022;-69
2024/04/09 20:22:56;;;;;;;1.50;1.08;;;13.90;99.90;;;;;;10605663;27;20300;-70
2024/04/09 20:27:46;;;;;;;2.40;1.00;;;13.90;99.90;;;;;;10615511;26;20027;-70
2024/04/09 20:32:49;;;;;;;2.95;0.80;;;13.90;99.90;;;;;;10605526;26;20087;-70
2024/04/09 20:37:40;;;;;;;1.95;0.98;;;13.90;99.90;;;;;;10606283;26;20010;-69
2024/04/09 20:42:30;;;;;;;2.55;1.25;;;13.80;99.90;;;;;;10598635;26;20010;-68
2024/04/09 20:47:21;;;;;;;1.70;0.95;;;13.80;99.90;;;;;;10587771;27;20079;-69
2024/04/09 20:52:12;;;;;;;3.97;0.90;;;13.70;99.90;;;;;;10615767;26;20017;-70
2024/04/09 20:57:03;;;;;;;2.15;1.02;;;13.70;99.90;;;;;;10610723;26;20009;-71
2024/04/09 21:01:53;;;;;;;3.63;1.20;;;13.70;99.90;;;;;;10614545;26;20483;-70
2024/04/09 21:06:44;;;;;;;5.93;1.10;;;13.70;99.90;;;;;;10613714;26;20073;-69
2024/04/09 21:11:34;;;;;;;0.82;0.60;;;13.70;99.90;;;;;;10594367;27;20569;-68
2024/04/09 21:16:25;;;;;;;5.38;0.75;;;13.60;99.90;;;;;;10613050;26;20012;-70
2024/04/09 21:21:16;;;;;;;3.22;0.90;;;13.60;99.90;;;;;;10605359;26;20099;-70
2024/04/09 21:26:07;;;;;;;3.58;0.90;;;13.60;99.90;;;;;;10611147;26;20430;-70
2024/04/09 21:30:57;;;;;;;1.92;1.00;;;13.50;99.90;;;;;;10599773;26;19998;-68
2024/04/09 21:35:54;;;;;;;2.08;0.80;;;13.50;99.90;;;;;;10602166;26;20021;-69
2024/04/09 21:40:45;;;;;;;1.98;0.70;;;13.50;99.90;;;;;;10596128;26;19998;-68
2024/04/09 21:45:37;;;;;;;2.22;0.70;;;13.40;99.90;;;;;;10609611;26;20491;-70
2024/04/09 21:50:27;;;;;;;1.70;0.70;;;13.50;99.90;;;;;;10589910;26;20106;-71
2024/04/09 21:55:18;;;;;;;3.63;1.00;;;13.40;99.90;;;;;;10611447;26;20001;-69
2024/04/09 22:00:19;;;;;;;3.17;0.93;;;13.40;99.90;;;;;;10609802;26;20033;-70
2024/04/09 22:05:10;;;;;;;3.45;1.15;;;13.40;99.90;;;;;;10570171;26;20343;-70
2024/04/09 22:10:01;;;;;;;2.03;1.05;;;13.30;99.90;;;;;;10591667;26;20019;-69
2024/04/09 22:14:51;;;;;;;0.77;0.65;;;13.30;99.90;;;;;;10602061;26;20017;-69
2024/04/09 22:19:43;;;;;;;1.70;0.95;;;13.30;99.90;;;;;;10604143;26;20018;-69
2024/04/09 22:24:34;;;;;;;2.22;1.00;;;13.20;99.90;;;;;;10591462;26;20005;-70
2024/04/09 22:29:25;;;;;;;3.38;1.35;;;13.20;99.90;;;;;;10568726;26;20017;-69
2024/04/09 22:34:15;;;;;;;2.58;1.15;;;13.20;99.90;;;;;;10594878;26;19998;-69
2024/04/09 22:39:09;;;;;;;4.20;1.15;;;13.10;99.90;;;;;;10603245;26;20006;-69
2024/04/09 22:44:00;;;;;;;1.13;0.90;;;13.10;99.90;;;;;;10597696;26;20109;-70
2024/04/09 22:48:51;;;;;;;2.83;1.42;;;13.00;99.90;;;;;;10568448;26;20012;-71
2024/04/09 22:53:42;;;;;;;2.95;0.93;;;13.00;99.90;;;;;;10577059;26;20013;-70
2024/04/09 22:58:32;;;;;;;1.02;0.90;;;13.10;99.90;;;;;;10607301;26;20335;-71
2024/04/09 23:03:23;;;;;;;3.50;0.95;;;13.00;99.90;;;;;;10606933;26;20462;-71
2024/04/09 23:08:13;;;;;;;4.32;1.13;;;12.90;99.90;;;;;;10610019;26;20660;-70
2024/04/09 23:13:04;;;;;;;6.68;1.05;;;12.90;99.90;;;;;;10604840;26;19997;-71
2024/04/09 23:17:55;;;;;;;3.78;1.30;;;12.80;99.90;;;;;;10599370;26;20002;-69
2024/04/09 23:22:45;;;;;;;3.22;0.90;;;12.80;99.90;;;;;;10609585;26;20001;-70
2024/04/09 23:27:36;;;;;;;2.45;1.00;;;12.70;99.90;;;;;;10554475;27;20510;-70
2024/04/09 23:32:27;;;;;;;1.83;1.02;;;12.70;99.90;;;;;;10584012;27;20002;-70
2024/04/09 23:37:18;;;;;;;3.10;0.88;;;12.70;99.90;;;;;;10596742;26;20172;-70
2024/04/09 23:42:08;;;;;;;2.47;1.10;;;12.70;99.90;;;;;;10607613;26;20002;-69
2024/04/09 23:47:02;;;;;;;5.13;0.90;;;12.60;99.90;;;;;;10611479;26;20006;-70
2024/04/09 23:51:54;;;;;;;5.70;1.10;;;12.60;99.90;;;;;;10592199;26;20444;-71
2024/04/09 23:56:44;;;;;;;2.05;1.10;;;12.60;99.90;;;;;;10610444;26;20005;-71
